Time,TemperatureF,DewpointF,PressureIn,WindDirection,WindDirectionDegrees,WindSpeedMPH,WindSpeedGustMPH,Humidity,HourlyPrecipIn,Conditions,Clouds,dailyrainin,SoftwareType,DateUTC
2013-10-15 00:01:00,58.3,45.0,29.57,East,90,1.0,2.0,61,0.00,,,0.00,meteohub,2013-10-15 05:01:00,
2013-10-15 00:06:00,58.1,44.8,29.54,East,90,1.0,2.0,61,0.00,,,0.00,meteohub,2013-10-15 05:06:00,
2013-10-15 00:11:00,58.1,44.8,29.54,ESE,112,1.0,2.0,61,0.00,,,0.00,meteohub,2013-10-15 05:11:00,
2013-10-15 00:16:00,58.1,45.1,29.54,ESE,112,1.0,1.0,62,0.00,,,0.00,meteohub,2013-10-15 05:16:00,
2013-10-15 00:21:00,58.1,45.1,29.54,East,90,1.0,1.0,62,0.00,,,0.00,meteohub,2013-10-15 05:21:00,
2013-10-15 00:26:00,58.1,45.1,29.54,East,90,1.0,1.0,62,0.00,,,0.00,meteohub,2013-10-15 05:26:00,
2013-10-15 00:31:00,58.1,45.1,29.54,East,90,1.0,1.0,62,0.00,,,0.00,meteohub,2013-10-15 05:31:00,
2013-10-15 00:36:00,58.1,45.1,29.51,East,90,1.0,1.0,62,0.00,,,0.00,meteohub,2013-10-15 05:36:00,
2013-10-15 00:42:00,58.1,45.5,29.51,SW,225,1.0,1.0,63,0.00,,,0.00,meteohub,2013-10-15 05:42:00,
2013-10-15 00:47:00,58.1,45.1,29.51,SSE,158,1.0,1.0,62,0.00,,,0.00,meteohub,2013-10-15 05:47:00,
2013-10-15 00:52:00,58.1,45.1,29.51,SSE,158,1.0,1.0,62,0.00,,,0.00,meteohub,2013-10-15 05:52:00,
2013-10-15 00:57:00,58.3,45.3,29.51,SSE,158,1.0,1.0,62,0.00,,,0.00,meteohub,2013-10-15 05:57:00,
2013-10-15 01:02:00,58.3,45.7,29.51,East,90,2.0,2.0,63,0.00,,,0.00,meteohub,2013-10-15 06:02:00,
2013-10-15 01:07:00,58.1,45.5,29.51,SW,225,2.0,2.0,63,0.00,,,0.00,meteohub,2013-10-15 06:07:00,
2013-10-15 01:12:00,58.1,45.5,29.51,SSE,158,1.0,2.0,63,0.00,,,0.00,meteohub,2013-10-15 06:12:00,
2013-10-15 01:17:00,58.1,45.5,29.51,East,90,2.0,2.0,63,0.00,,,0.00,meteohub,2013-10-15 06:17:00,
2013-10-15 01:22:00,58.3,45.7,29.51,East,90,2.0,2.0,63,0.00,,,0.00,meteohub,2013-10-15 06:22:00,
2013-10-15 01:27:00,58.3,45.7,29.51,East,90,2.0,2.0,63,0.00,,,0.00,meteohub,2013-10-15 06:27:00,
2013-10-15 01:32:00,58.3,45.7,29.51,East,90,2.0,2.0,63,0.00,,,0.00,meteohub,2013-10-15 06:32:00,
2013-10-15 01:38:00,58.3,45.7,29.51,North,-999,-999.0,2.0,63,0.00,,,0.00,meteohub,2013-10-15 06:38:00,
2013-10-15 01:43:00,58.3,46.2,29.51,South,180,2.0,2.0,64,0.00,,,0.00,meteohub,2013-10-15 06:43:00,
2013-10-15 01:48:00,58.3,46.2,29.51,South,180,2.0,2.0,64,0.00,,,0.00,meteohub,2013-10-15 06:48:00,
2013-10-15 01:53:00,58.3,46.2,29.48,East,90,1.0,2.0,64,0.00,,,0.00,meteohub,2013-10-15 06:53:00,
2013-10-15 01:58:00,58.3,46.2,29.48,SSE,158,2.0,2.0,64,0.00,,,0.00,meteohub,2013-10-15 06:58:00,
2013-10-15 02:03:00,58.5,46.4,29.48,SSE,158,2.0,2.0,64,0.00,,,0.00,meteohub,2013-10-15 07:03:00,
2013-10-15 02:08:00,58.5,46.4,29.51,SSE,158,2.0,2.0,64,0.00,,,0.00,meteohub,2013-10-15 07:08:00,
2013-10-15 02:13:00,58.5,46.4,29.51,SSE,158,2.0,2.0,64,0.00,,,0.00,meteohub,2013-10-15 07:13:00,
2013-10-15 02:18:00,58.5,46.4,29.51,ENE,68,1.0,2.0,64,0.00,,,0.00,meteohub,2013-10-15 07:18:00,
2013-10-15 02:23:00,58.6,46.9,29.51,ENE,68,1.0,2.0,65,0.00,,,0.00,meteohub,2013-10-15 07:23:00,
2013-10-15 02:28:00,58.6,46.9,29.51,ENE,68,1.0,1.0,65,0.00,,,0.00,meteohub,2013-10-15 07:28:00,
2013-10-15 02:33:00,58.6,46.9,29.51,ENE,68,1.0,1.0,65,0.00,,,0.00,meteohub,2013-10-15 07:33:00,
2013-10-15 02:39:00,58.6,47.3,29.51,North,-999,-999.0,1.0,66,0.00,,,0.00,meteohub,2013-10-15 07:39:00,
2013-10-15 02:44:00,58.8,47.1,29.51,North,-999,-999.0,1.0,65,0.00,,,0.00,meteohub,2013-10-15 07:44:00,
2013-10-15 02:49:00,59.0,47.3,29.48,ESE,112,1.0,1.0,65,0.00,,,0.00,meteohub,2013-10-15 07:49:00,
2013-10-15 02:54:00,59.0,47.3,29.48,ESE,112,1.0,1.0,65,0.00,,,0.00,meteohub,2013-10-15 07:54:00,
2013-10-15 02:59:00,59.0,47.7,29.48,South,180,2.0,2.0,66,0.00,,,0.00,meteohub,2013-10-15 07:59:00,
2013-10-15 03:04:00,59.0,47.7,29.48,South,180,2.0,2.0,66,0.00,,,0.00,meteohub,2013-10-15 08:04:00,
2013-10-15 03:09:00,59.0,47.7,29.48,South,180,2.0,2.0,66,0.00,,,0.00,meteohub,2013-10-15 08:09:00,
2013-10-15 03:14:00,59.2,47.8,29.48,South,180,2.0,2.0,66,0.00,,,0.00,meteohub,2013-10-15 08:14:00,
2013-10-15 03:19:00,59.0,47.7,29.48,North,-999,-999.0,2.0,66,0.00,,,0.00,meteohub,2013-10-15 08:19:00,
2013-10-15 03:24:00,59.2,47.8,29.48,North,-999,-999.0,2.0,66,0.00,,,0.00,meteohub,2013-10-15 08:24:00,
2013-10-15 03:29:00,59.2,47.8,29.48,ESE,112,1.0,2.0,66,0.00,,,0.00,meteohub,2013-10-15 08:29:00,
2013-10-15 03:34:00,59.2,48.2,29.48,ESE,112,1.0,1.0,67,0.00,,,0.00,meteohub,2013-10-15 08:34:00,
2013-10-15 03:39:00,59.0,48.0,29.48,SSE,158,1.0,1.0,67,0.00,,,0.00,meteohub,2013-10-15 08:39:00,
2013-10-15 03:45:00,59.2,48.2,29.48,East,90,2.0,2.0,67,0.00,,,0.00,meteohub,2013-10-15 08:45:00,
2013-10-15 03:50:00,59.4,48.7,29.48,East,90,1.0,2.0,68,0.00,,,0.00,meteohub,2013-10-15 08:50:00,
2013-10-15 03:54:00,59.4,48.7,29.48,East,90,2.0,2.0,68,0.00,,,0.00,meteohub,2013-10-15 08:54:00,
2013-10-15 03:59:00,59.4,48.7,29.48,SE,135,1.0,2.0,68,0.00,,,0.00,meteohub,2013-10-15 08:59:00,
2013-10-15 04:04:00,59.4,48.7,29.48,SE,135,1.0,2.0,68,0.00,,,0.00,meteohub,2013-10-15 09:04:00,
2013-10-15 04:09:00,59.4,49.3,29.48,SE,135,1.0,2.0,69,0.00,,,0.00,meteohub,2013-10-15 09:09:00,
2013-10-15 04:14:00,59.4,49.3,29.48,East,90,1.0,2.0,69,0.00,,,0.00,meteohub,2013-10-15 09:14:00,
2013-10-15 04:20:00,59.4,49.3,29.48,East,90,1.0,1.0,69,0.00,,,0.00,meteohub,2013-10-15 09:20:00,
2013-10-15 04:25:00,59.4,49.3,29.48,SSE,158,1.0,1.0,69,0.00,,,0.00,meteohub,2013-10-15 09:25:00,
2013-10-15 04:30:00,59.4,49.3,29.48,SSE,158,2.0,2.0,69,0.00,,,0.00,meteohub,2013-10-15 09:30:00,
2013-10-15 04:35:00,59.4,49.3,29.48,SSE,158,2.0,2.0,69,0.00,,,0.00,meteohub,2013-10-15 09:35:00,
2013-10-15 04:40:00,59.4,49.6,29.48,SE,135,3.0,3.0,70,0.00,,,0.00,meteohub,2013-10-15 09:40:00,
2013-10-15 04:45:00,59.4,49.6,29.48,SE,135,1.0,3.0,70,0.00,,,0.00,meteohub,2013-10-15 09:45:00,
2013-10-15 04:50:00,59.4,50.0,29.45,SE,135,1.0,3.0,71,0.00,,,0.00,meteohub,2013-10-15 09:50:00,
2013-10-15 04:55:00,59.4,50.0,29.45,SE,135,1.0,3.0,71,0.00,,,0.00,meteohub,2013-10-15 09:55:00,
2013-10-15 05:00:00,59.5,50.2,29.45,SE,135,1.0,1.0,71,0.00,,,0.00,meteohub,2013-10-15 10:00:00,
2013-10-15 05:05:00,59.5,50.5,29.48,SE,135,1.0,1.0,72,0.00,,,0.00,meteohub,2013-10-15 10:05:00,
2013-10-15 05:10:00,59.5,50.5,29.48,SE,135,1.0,1.0,72,0.00,,,0.00,meteohub,2013-10-15 10:10:00,
2013-10-15 05:15:00,59.7,50.7,29.48,SSE,158,2.0,2.0,72,0.00,,,0.00,meteohub,2013-10-15 10:15:00,
2013-10-15 05:20:00,59.7,50.7,29.48,SSE,158,2.0,2.0,72,0.00,,,0.00,meteohub,2013-10-15 10:20:00,
2013-10-15 05:26:00,59.7,50.7,29.48,SSE,158,2.0,2.0,72,0.00,,,0.00,meteohub,2013-10-15 10:26:00,
2013-10-15 05:31:00,59.7,51.1,29.48,SSE,158,1.0,2.0,73,0.00,,,0.00,meteohub,2013-10-15 10:31:00,
2013-10-15 05:36:00,59.9,51.3,29.45,SSE,158,1.0,2.0,73,0.00,,,0.00,meteohub,2013-10-15 10:36:00,
2013-10-15 05:41:00,59.9,51.3,29.45,SSE,158,1.0,2.0,73,0.00,,,0.00,meteohub,2013-10-15 10:41:00,
2013-10-15 05:46:00,59.9,51.3,29.45,SSE,158,1.0,1.0,73,0.00,,,0.00,meteohub,2013-10-15 10:46:00,
2013-10-15 05:51:00,59.9,51.3,29.45,North,-999,-999.0,1.0,73,0.00,,,0.00,meteohub,2013-10-15 10:51:00,
2013-10-15 05:56:00,59.9,51.3,29.45,North,-999,-999.0,1.0,73,0.00,,,0.00,meteohub,2013-10-15 10:56:00,
2013-10-15 06:01:00,60.1,51.8,29.45,North,-999,-999.0,-999.0,74,0.00,,,0.00,meteohub,2013-10-15 11:01:00,
2013-10-15 06:06:00,60.1,51.8,29.45,North,-999,-999.0,-999.0,74,0.00,,,0.00,meteohub,2013-10-15 11:06:00,
2013-10-15 06:11:00,60.1,51.8,29.45,North,-999,-999.0,-999.0,74,0.00,,,0.00,meteohub,2013-10-15 11:11:00,
2013-10-15 06:16:00,60.3,52.0,29.45,SE,135,3.0,-999.0,74,0.00,,,0.00,meteohub,2013-10-15 11:16:00,
2013-10-15 06:21:00,60.3,52.3,29.45,ENE,68,3.0,3.0,75,0.00,,,0.00,meteohub,2013-10-15 11:21:00,
2013-10-15 06:26:00,60.3,52.3,29.45,South,180,4.0,4.0,75,0.00,,,0.00,meteohub,2013-10-15 11:26:00,
2013-10-15 06:31:00,60.3,52.3,29.45,South,180,4.0,4.0,75,0.00,,,0.00,meteohub,2013-10-15 11:31:00,
2013-10-15 06:37:00,60.4,52.5,29.45,SSE,158,3.0,4.0,75,0.00,,,0.00,meteohub,2013-10-15 11:37:00,
2013-10-15 06:42:00,60.4,52.5,29.45,SSE,158,3.0,4.0,75,0.00,,,0.00,meteohub,2013-10-15 11:42:00,
2013-10-15 06:47:00,60.4,52.5,29.45,SSE,158,3.0,4.0,75,0.00,,,0.00,meteohub,2013-10-15 11:47:00,
2013-10-15 06:52:00,60.4,52.5,29.42,SSE,158,3.0,3.0,75,0.00,,,0.00,meteohub,2013-10-15 11:52:00,
2013-10-15 06:57:00,60.4,52.9,29.42,North,-999,-999.0,3.0,76,0.00,,,0.00,meteohub,2013-10-15 11:57:00,
2013-10-15 07:02:00,60.4,52.9,29.42,North,-999,-999.0,3.0,76,0.00,,,0.00,meteohub,2013-10-15 12:02:00,
2013-10-15 07:07:00,60.4,52.9,29.45,North,-999,-999.0,-999.0,76,0.00,,,0.00,meteohub,2013-10-15 12:07:00,
2013-10-15 07:12:00,60.4,52.9,29.45,North,-999,-999.0,-999.0,76,0.00,,,0.00,meteohub,2013-10-15 12:12:00,
2013-10-15 07:17:00,60.4,53.2,29.45,North,-999,-999.0,-999.0,77,0.00,,,0.00,meteohub,2013-10-15 12:17:00,
2013-10-15 07:22:00,60.4,53.2,29.45,North,-999,-999.0,-999.0,77,0.00,,,0.00,meteohub,2013-10-15 12:22:00,
2013-10-15 07:27:00,60.4,53.2,29.45,North,-999,-999.0,-999.0,77,0.00,,,0.00,meteohub,2013-10-15 12:27:00,
2013-10-15 07:32:00,60.4,53.2,29.45,North,-999,-999.0,-999.0,77,0.00,,,0.00,meteohub,2013-10-15 12:32:00,
2013-10-15 07:37:00,60.4,53.2,29.42,North,-999,-999.0,-999.0,77,0.00,,,0.00,meteohub,2013-10-15 12:37:00,
2013-10-15 07:42:00,60.4,53.6,29.42,North,-999,-999.0,-999.0,78,0.00,,,0.00,meteohub,2013-10-15 12:42:00,
2013-10-15 07:47:00,60.4,53.6,29.42,North,-999,-999.0,-999.0,78,0.00,,,0.00,meteohub,2013-10-15 12:47:00,
2013-10-15 07:52:00,60.4,53.6,29.45,North,-999,-999.0,-999.0,78,0.00,,,0.00,meteohub,2013-10-15 12:52:00,
2013-10-15 07:57:00,60.6,54.1,29.45,North,-999,-999.0,-999.0,79,0.00,,,0.00,meteohub,2013-10-15 12:57:00,
2013-10-15 08:02:00,60.6,54.1,29.45,North,-999,-999.0,-999.0,79,0.00,,,0.00,meteohub,2013-10-15 13:02:00,
2013-10-15 08:07:00,60.8,54.3,29.45,North,-999,-999.0,-999.0,79,0.00,,,0.00,meteohub,2013-10-15 13:07:00,
2013-10-15 08:12:00,61.0,54.5,29.45,North,-999,-999.0,-999.0,79,0.00,,,0.00,meteohub,2013-10-15 13:12:00,
2013-10-15 08:17:00,61.0,54.5,29.45,North,-999,-999.0,-999.0,79,0.00,,,0.00,meteohub,2013-10-15 13:17:00,
2013-10-15 08:22:00,61.2,54.7,29.45,North,-999,-999.0,-999.0,79,0.00,,,0.00,meteohub,2013-10-15 13:22:00,
2013-10-15 08:28:00,61.2,54.7,29.45,North,-999,-999.0,-999.0,79,0.00,,,0.00,meteohub,2013-10-15 13:28:00,
2013-10-15 08:33:00,61.3,54.9,29.45,North,-999,-999.0,-999.0,79,0.00,,,0.00,meteohub,2013-10-15 13:33:00,
2013-10-15 08:38:00,61.3,54.9,29.45,North,-999,-999.0,-999.0,79,0.00,,,0.00,meteohub,2013-10-15 13:38:00,
2013-10-15 08:43:00,61.5,55.2,29.45,North,-999,-999.0,-999.0,80,0.00,,,0.00,meteohub,2013-10-15 13:43:00,
2013-10-15 08:48:00,61.5,55.2,29.45,North,-999,-999.0,-999.0,80,0.00,,,0.00,meteohub,2013-10-15 13:48:00,
2013-10-15 08:53:00,61.7,55.4,29.45,North,-999,-999.0,-999.0,80,0.00,,,0.00,meteohub,2013-10-15 13:53:00,
2013-10-15 08:58:00,61.9,55.6,29.45,North,-999,-999.0,-999.0,80,0.00,,,0.00,meteohub,2013-10-15 13:58:00,
2013-10-15 09:03:00,61.9,55.6,29.45,North,-999,-999.0,-999.0,80,0.00,,,0.00,meteohub,2013-10-15 14:03:00,
2013-10-15 09:08:00,62.2,55.9,29.45,North,-999,-999.0,-999.0,80,0.00,,,0.00,meteohub,2013-10-15 14:08:00,
2013-10-15 09:13:00,62.2,55.9,29.45,North,-999,-999.0,-999.0,80,0.00,,,0.00,meteohub,2013-10-15 14:13:00,
2013-10-15 09:18:00,62.4,56.1,29.45,North,-999,-999.0,-999.0,80,0.00,,,0.00,meteohub,2013-10-15 14:18:00,
2013-10-15 09:23:00,62.6,56.3,29.45,North,-999,-999.0,-999.0,80,0.00,,,0.00,meteohub,2013-10-15 14:23:00,
2013-10-15 09:28:00,62.8,56.5,29.45,North,-999,-999.0,-999.0,80,0.00,,,0.00,meteohub,2013-10-15 14:28:00,
2013-10-15 09:34:00,63.0,56.7,29.45,ESE,112,3.0,-999.0,80,0.00,,,0.00,meteohub,2013-10-15 14:34:00,
2013-10-15 09:39:00,63.1,56.8,29.45,SSW,202,3.0,4.0,80,0.00,,,0.00,meteohub,2013-10-15 14:39:00,
2013-10-15 09:44:00,63.3,57.0,29.45,SSW,202,4.0,4.0,80,0.00,,,0.00,meteohub,2013-10-15 14:44:00,
2013-10-15 09:49:00,63.5,57.2,29.42,SSE,158,6.0,6.0,80,0.00,,,0.00,meteohub,2013-10-15 14:49:00,
2013-10-15 09:54:00,63.5,57.2,29.42,SSW,202,2.0,6.0,80,0.00,,,0.00,meteohub,2013-10-15 14:54:00,
2013-10-15 09:59:00,63.5,57.2,29.42,South,180,4.0,8.0,80,0.00,,,0.00,meteohub,2013-10-15 14:59:00,
2013-10-15 10:04:00,63.7,57.7,29.45,South,180,2.0,8.0,81,0.00,,,0.00,meteohub,2013-10-15 15:04:00,
2013-10-15 10:09:00,63.5,57.6,29.45,South,180,4.0,8.0,81,0.00,,,0.00,meteohub,2013-10-15 15:09:00,
2013-10-15 10:14:00,63.5,57.6,29.45,South,180,4.0,6.0,81,0.00,,,0.00,meteohub,2013-10-15 15:14:00,
2013-10-15 10:19:00,63.5,57.9,29.45,South,180,4.0,6.0,82,0.00,,,0.00,meteohub,2013-10-15 15:19:00,
2013-10-15 10:24:00,63.5,57.9,29.45,South,180,4.0,4.0,82,0.00,,,0.00,meteohub,2013-10-15 15:24:00,
2013-10-15 10:29:00,63.5,58.3,29.45,North,-999,-999.0,4.0,83,0.00,,,0.00,meteohub,2013-10-15 15:29:00,
2013-10-15 10:34:00,63.5,58.3,29.45,South,180,4.0,4.0,83,0.00,,,0.00,meteohub,2013-10-15 15:34:00,
2013-10-15 10:40:00,63.7,58.5,29.45,South,180,4.0,4.0,83,0.00,,,0.00,meteohub,2013-10-15 15:40:00,
2013-10-15 10:45:00,63.7,58.5,29.45,South,180,4.0,4.0,83,0.00,,,0.00,meteohub,2013-10-15 15:45:00,
2013-10-15 10:50:00,63.7,58.8,29.45,South,180,4.0,4.0,84,0.00,,,0.00,meteohub,2013-10-15 15:50:00,
2013-10-15 10:55:00,63.7,58.8,29.45,North,-999,-999.0,4.0,84,0.04,,,0.04,meteohub,2013-10-15 15:55:00,
2013-10-15 11:00:00,63.7,58.8,29.45,South,180,4.0,4.0,84,0.04,,,0.04,meteohub,2013-10-15 16:00:00,
2013-10-15 11:05:00,63.9,59.2,29.45,South,180,4.0,4.0,85,0.04,,,0.04,meteohub,2013-10-15 16:05:00,
2013-10-15 11:10:00,63.9,59.5,29.45,South,180,4.0,4.0,86,0.04,,,0.04,meteohub,2013-10-15 16:10:00,
2013-10-15 11:15:00,63.9,59.5,29.45,South,180,3.0,4.0,86,0.04,,,0.04,meteohub,2013-10-15 16:15:00,
2013-10-15 11:20:00,63.9,59.5,29.45,South,180,3.0,4.0,86,0.08,,,0.08,meteohub,2013-10-15 16:20:00,
2013-10-15 11:25:00,64.0,60.1,29.45,SSW,202,4.0,4.0,87,0.08,,,0.08,meteohub,2013-10-15 16:25:00,
2013-10-15 11:30:00,64.0,60.1,29.45,SSW,202,4.0,4.0,87,0.08,,,0.08,meteohub,2013-10-15 16:30:00,
2013-10-15 11:35:00,64.0,60.1,29.45,SSW,202,4.0,4.0,87,0.08,,,0.08,meteohub,2013-10-15 16:35:00,
2013-10-15 11:40:00,64.0,60.1,29.45,SSW,202,4.0,4.0,87,0.12,,,0.12,meteohub,2013-10-15 16:40:00,
2013-10-15 11:46:00,64.0,60.1,29.45,SE,135,3.0,4.0,87,0.12,,,0.12,meteohub,2013-10-15 16:46:00,
2013-10-15 11:51:00,64.2,60.3,29.45,SE,135,3.0,4.0,87,0.08,,,0.12,meteohub,2013-10-15 16:51:00,
2013-10-15 11:56:00,64.0,60.1,29.45,SSE,158,5.0,5.0,87,0.08,,,0.12,meteohub,2013-10-15 16:56:00,
2013-10-15 12:01:00,64.2,60.3,29.45,SSE,158,5.0,5.0,87,0.08,,,0.12,meteohub,2013-10-15 17:01:00,
2013-10-15 12:06:00,64.2,60.6,29.45,SSE,158,5.0,5.0,88,0.12,,,0.16,meteohub,2013-10-15 17:06:00,
2013-10-15 12:11:00,64.2,60.6,29.45,SSE,158,5.0,5.0,88,0.12,,,0.16,meteohub,2013-10-15 17:11:00,
2013-10-15 12:16:00,64.4,60.8,29.45,North,-999,-999.0,5.0,88,0.12,,,0.16,meteohub,2013-10-15 17:16:00,
2013-10-15 12:21:00,64.6,61.3,29.39,North,-999,-999.0,5.0,89,0.08,,,0.16,meteohub,2013-10-15 17:21:00,
2013-10-15 12:26:00,64.6,61.5,29.39,North,-999,-999.0,5.0,90,0.08,,,0.16,meteohub,2013-10-15 17:26:00,
2013-10-15 12:31:00,64.9,61.9,29.39,North,-999,-999.0,-999.0,90,0.13,,,0.21,meteohub,2013-10-15 17:31:00,
2013-10-15 12:36:00,65.1,62.1,29.42,North,-999,-999.0,-999.0,90,0.09,,,0.21,meteohub,2013-10-15 17:36:00,
2013-10-15 12:41:00,65.1,61.9,29.42,North,-999,-999.0,-999.0,89,0.09,,,0.21,meteohub,2013-10-15 17:41:00,
2013-10-15 12:46:00,65.5,62.2,29.42,North,-999,-999.0,-999.0,89,0.09,,,0.21,meteohub,2013-10-15 17:46:00,
2013-10-15 12:51:00,65.5,62.2,29.42,North,-999,-999.0,-999.0,89,0.09,,,0.21,meteohub,2013-10-15 17:51:00,
2013-10-15 12:57:00,65.7,62.2,29.42,North,-999,-999.0,-999.0,89,0.09,,,0.21,meteohub,2013-10-15 17:57:00,
2013-10-15 13:02:00,65.7,62.6,29.42,North,-999,-999.0,-999.0,90,0.09,,,0.21,meteohub,2013-10-15 18:02:00,
2013-10-15 13:07:00,65.5,62.2,29.42,North,-999,-999.0,-999.0,89,0.05,,,0.21,meteohub,2013-10-15 18:07:00,
2013-10-15 13:12:00,65.7,62.2,29.42,North,-999,-999.0,-999.0,89,0.05,,,0.21,meteohub,2013-10-15 18:12:00,
2013-10-15 13:17:00,65.7,62.2,29.42,North,-999,-999.0,-999.0,89,0.05,,,0.21,meteohub,2013-10-15 18:17:00,
2013-10-15 13:22:00,65.5,62.2,29.39,North,-999,-999.0,-999.0,89,0.05,,,0.21,meteohub,2013-10-15 18:22:00,
2013-10-15 13:27:00,65.5,62.2,29.39,North,-999,-999.0,-999.0,89,0.05,,,0.21,meteohub,2013-10-15 18:27:00,
2013-10-15 13:32:00,65.5,62.2,29.39,North,-999,-999.0,-999.0,89,0.00,,,0.21,meteohub,2013-10-15 18:32:00,
2013-10-15 13:37:00,65.5,61.9,29.39,North,-999,-999.0,-999.0,88,0.00,,,0.21,meteohub,2013-10-15 18:37:00,
2013-10-15 13:42:00,65.7,62.1,29.39,North,-999,-999.0,-999.0,88,0.00,,,0.21,meteohub,2013-10-15 18:42:00,
2013-10-15 13:47:00,65.7,62.1,29.39,North,-999,-999.0,-999.0,88,0.00,,,0.21,meteohub,2013-10-15 18:47:00,
2013-10-15 13:52:00,65.7,62.1,29.39,North,-999,-999.0,-999.0,88,0.00,,,0.21,meteohub,2013-10-15 18:52:00,
2013-10-15 13:57:00,65.7,62.1,29.39,South,180,20.0,-999.0,88,0.00,,,0.21,meteohub,2013-10-15 18:57:00,
2013-10-15 14:02:00,65.8,62.2,29.39,SSE,158,8.0,20.0,88,0.00,,,0.21,meteohub,2013-10-15 19:02:00,
2013-10-15 14:07:00,66.0,62.4,29.39,SW,225,4.0,20.0,88,0.00,,,0.21,meteohub,2013-10-15 19:07:00,
2013-10-15 14:12:00,65.8,62.2,29.39,SE,135,5.0,20.0,88,0.00,,,0.21,meteohub,2013-10-15 19:12:00,
2013-10-15 14:17:00,65.8,62.2,29.39,SSW,202,3.0,9.0,88,0.00,,,0.21,meteohub,2013-10-15 19:17:00,
2013-10-15 14:22:00,65.8,62.2,29.39,SSW,202,3.0,7.0,88,0.00,,,0.21,meteohub,2013-10-15 19:22:00,
2013-10-15 14:27:00,65.7,61.7,29.39,SSW,202,3.0,7.0,87,0.00,,,0.21,meteohub,2013-10-15 19:27:00,
2013-10-15 14:33:00,65.7,61.7,29.39,SSW,202,3.0,3.0,87,0.00,,,0.21,meteohub,2013-10-15 19:33:00,
2013-10-15 14:38:00,65.7,61.7,29.39,North,-999,-999.0,3.0,87,0.00,,,0.21,meteohub,2013-10-15 19:38:00,
2013-10-15 14:43:00,65.7,61.7,29.39,North,-999,-999.0,3.0,87,0.00,,,0.21,meteohub,2013-10-15 19:43:00,
2013-10-15 14:48:00,65.7,61.7,29.39,North,-999,-999.0,-999.0,87,0.00,,,0.21,meteohub,2013-10-15 19:48:00,
2013-10-15 14:53:00,65.5,61.5,29.39,North,-999,-999.0,-999.0,87,0.00,,,0.21,meteohub,2013-10-15 19:53:00,
2013-10-15 14:58:00,65.7,61.7,29.39,North,-999,-999.0,-999.0,87,0.00,,,0.21,meteohub,2013-10-15 19:58:00,
2013-10-15 15:03:00,65.7,61.3,29.39,South,180,6.0,-999.0,86,0.00,,,0.21,meteohub,2013-10-15 20:03:00,
2013-10-15 15:08:00,65.5,61.2,29.36,South,180,6.0,6.0,86,0.00,,,0.21,meteohub,2013-10-15 20:08:00,
2013-10-15 15:13:00,65.1,60.4,29.36,South,180,6.0,6.0,85,0.00,,,0.21,meteohub,2013-10-15 20:13:00,
2013-10-15 15:18:00,65.1,60.1,29.36,SE,135,3.0,6.0,84,0.00,,,0.21,meteohub,2013-10-15 20:18:00,
2013-10-15 15:23:00,64.9,60.3,29.39,South,180,10.0,12.0,85,0.00,,,0.21,meteohub,2013-10-15 20:23:00,
2013-10-15 15:28:00,64.9,60.3,29.39,SW,225,5.0,12.0,85,0.00,,,0.21,meteohub,2013-10-15 20:28:00,
2013-10-15 15:34:00,64.9,60.3,29.39,SW,225,5.0,12.0,85,0.00,,,0.21,meteohub,2013-10-15 20:34:00,
2013-10-15 15:39:00,64.8,60.1,29.39,SW,225,5.0,10.0,85,0.00,,,0.21,meteohub,2013-10-15 20:39:00,
2013-10-15 15:44:00,64.9,60.6,29.39,SW,225,5.0,10.0,86,0.00,,,0.21,meteohub,2013-10-15 20:44:00,
2013-10-15 15:49:00,64.8,60.4,29.39,SSW,202,10.0,10.0,86,0.00,,,0.21,meteohub,2013-10-15 20:49:00,
2013-10-15 15:54:00,64.8,60.4,29.39,SSW,202,10.0,10.0,86,0.00,,,0.21,meteohub,2013-10-15 20:54:00,
2013-10-15 15:59:00,64.9,60.6,29.39,SSW,202,10.0,10.0,86,0.00,,,0.21,meteohub,2013-10-15 20:59:00,
2013-10-15 16:04:00,64.9,60.6,29.39,North,-999,-999.0,10.0,86,0.00,,,0.21,meteohub,2013-10-15 21:04:00,
2013-10-15 16:10:00,64.9,61.0,29.39,North,-999,-999.0,10.0,87,0.00,,,0.21,meteohub,2013-10-15 21:10:00,
2013-10-15 16:15:00,64.9,60.6,29.39,North,-999,-999.0,10.0,86,0.00,,,0.21,meteohub,2013-10-15 21:15:00,
2013-10-15 16:20:00,64.9,61.0,29.39,North,-999,-999.0,-999.0,87,0.00,,,0.21,meteohub,2013-10-15 21:20:00,
2013-10-15 16:25:00,64.9,61.0,29.39,North,-999,-999.0,-999.0,87,0.00,,,0.21,meteohub,2013-10-15 21:25:00,
2013-10-15 16:30:00,64.9,61.0,29.39,South,180,4.0,4.0,87,0.00,,,0.21,meteohub,2013-10-15 21:30:00,
2013-10-15 16:35:00,64.9,61.0,29.39,South,180,7.0,11.0,87,0.00,,,0.21,meteohub,2013-10-15 21:35:00,
2013-10-15 16:40:00,64.9,61.0,29.39,SSW,202,4.0,11.0,87,0.00,,,0.21,meteohub,2013-10-15 21:40:00,
2013-10-15 16:45:00,64.9,61.0,29.39,South,180,4.0,11.0,87,0.00,,,0.21,meteohub,2013-10-15 21:45:00,
2013-10-15 16:50:00,64.9,61.3,29.39,South,180,5.0,8.0,88,0.00,,,0.21,meteohub,2013-10-15 21:50:00,
2013-10-15 16:55:00,64.8,61.2,29.39,SSW,202,4.0,6.0,88,0.00,,,0.21,meteohub,2013-10-15 21:55:00,
2013-10-15 17:00:00,64.8,61.2,29.39,SW,225,5.0,6.0,88,0.00,,,0.21,meteohub,2013-10-15 22:00:00,
2013-10-15 17:06:00,64.8,61.2,29.39,SW,225,5.0,6.0,88,0.00,,,0.21,meteohub,2013-10-15 22:06:00,
2013-10-15 17:11:00,64.8,61.2,29.39,South,180,4.0,6.0,88,0.00,,,0.21,meteohub,2013-10-15 22:11:00,
2013-10-15 17:16:00,64.9,61.7,29.39,South,180,3.0,6.0,89,0.00,,,0.21,meteohub,2013-10-15 22:16:00,
2013-10-15 17:21:00,64.9,61.7,29.39,SW,225,3.0,8.0,89,0.00,,,0.21,meteohub,2013-10-15 22:21:00,
2013-10-15 17:26:00,64.9,61.7,29.39,South,180,3.0,8.0,89,0.00,,,0.21,meteohub,2013-10-15 22:26:00,
2013-10-15 17:31:00,64.9,61.7,29.39,South,180,4.0,8.0,89,0.00,,,0.21,meteohub,2013-10-15 22:31:00,
2013-10-15 17:36:00,64.9,61.7,29.39,SSW,202,4.0,6.0,89,0.00,,,0.21,meteohub,2013-10-15 22:36:00,
2013-10-15 17:41:00,64.9,61.7,29.39,SSW,202,4.0,6.0,89,0.00,,,0.21,meteohub,2013-10-15 22:41:00,
2013-10-15 17:46:00,64.9,61.7,29.39,SSW,202,4.0,6.0,89,0.00,,,0.21,meteohub,2013-10-15 22:46:00,
2013-10-15 17:51:00,64.9,61.9,29.39,SW,225,5.0,6.0,90,0.00,,,0.21,meteohub,2013-10-15 22:51:00,
2013-10-15 17:56:00,64.9,61.9,29.39,SSW,202,6.0,6.0,90,0.00,,,0.21,meteohub,2013-10-15 22:56:00,
2013-10-15 18:02:00,64.9,61.9,29.39,SSW,202,6.0,6.0,90,0.00,,,0.21,meteohub,2013-10-15 23:02:00,
2013-10-15 18:07:00,64.9,61.9,29.39,SSW,202,6.0,6.0,90,0.00,,,0.21,meteohub,2013-10-15 23:07:00,
2013-10-15 18:12:00,64.9,62.2,29.39,SSW,202,6.0,6.0,91,0.00,,,0.21,meteohub,2013-10-15 23:12:00,
2013-10-15 18:17:00,64.9,62.2,29.39,North,-999,-999.0,6.0,91,0.00,,,0.21,meteohub,2013-10-15 23:17:00,
2013-10-15 18:22:00,64.9,62.2,29.42,North,-999,-999.0,6.0,91,0.00,,,0.21,meteohub,2013-10-15 23:22:00,
2013-10-15 18:27:00,64.9,62.2,29.42,North,-999,-999.0,6.0,91,0.00,,,0.21,meteohub,2013-10-15 23:27:00,
2013-10-15 18:32:00,64.9,62.2,29.42,North,-999,-999.0,-999.0,91,0.00,,,0.21,meteohub,2013-10-15 23:32:00,
2013-10-15 18:37:00,64.9,62.2,29.42,North,-999,-999.0,-999.0,91,0.00,,,0.21,meteohub,2013-10-15 23:37:00,
2013-10-15 18:42:00,64.9,62.2,29.42,North,-999,-999.0,-999.0,91,0.00,,,0.21,meteohub,2013-10-15 23:42:00,
2013-10-15 18:47:00,64.9,62.6,29.42,North,-999,-999.0,-999.0,92,0.00,,,0.21,meteohub,2013-10-15 23:47:00,
2013-10-15 18:52:00,65.1,62.4,29.45,North,-999,-999.0,-999.0,91,0.00,,,0.21,meteohub,2013-10-15 23:52:00,
2013-10-15 18:57:00,65.1,62.8,29.45,North,-999,-999.0,-999.0,92,0.00,,,0.21,meteohub,2013-10-15 23:57:00,
2013-10-15 19:02:00,65.1,62.4,29.45,North,-999,-999.0,-999.0,91,0.00,,,0.21,meteohub,2013-10-16 00:02:00,
2013-10-15 19:07:00,65.1,62.8,29.48,North,-999,-999.0,-999.0,92,0.00,,,0.00,meteohub,2013-10-16 00:07:00,
2013-10-15 19:12:00,65.1,62.8,29.48,North,-999,-999.0,-999.0,92,0.00,,,0.00,meteohub,2013-10-16 00:12:00,
2013-10-15 19:17:00,65.1,62.8,29.48,North,-999,-999.0,-999.0,92,0.00,,,0.00,meteohub,2013-10-16 00:17:00,
2013-10-15 19:22:00,65.1,62.4,29.45,North,-999,-999.0,-999.0,91,0.00,,,0.00,meteohub,2013-10-16 00:22:00,
2013-10-15 19:27:00,65.1,62.8,29.45,North,-999,-999.0,-999.0,92,0.00,,,0.00,meteohub,2013-10-16 00:27:00,
2013-10-15 19:32:00,65.1,62.8,29.45,North,-999,-999.0,-999.0,92,0.00,,,0.00,meteohub,2013-10-16 00:32:00,
2013-10-15 19:37:00,65.1,62.8,29.42,North,-999,-999.0,-999.0,92,0.00,,,0.00,meteohub,2013-10-16 00:37:00,
2013-10-15 19:42:00,65.1,62.8,29.42,North,-999,-999.0,-999.0,92,0.00,,,0.00,meteohub,2013-10-16 00:42:00,
2013-10-15 19:47:00,65.1,62.8,29.42,North,-999,-999.0,-999.0,92,0.00,,,0.00,meteohub,2013-10-16 00:47:00,
2013-10-15 19:52:00,65.1,62.8,29.45,North,-999,-999.0,-999.0,92,0.00,,,0.00,meteohub,2013-10-16 00:52:00,
2013-10-15 19:57:00,65.1,62.8,29.45,North,-999,-999.0,-999.0,92,0.00,,,0.00,meteohub,2013-10-16 00:57:00,
2013-10-15 20:02:00,65.1,62.8,29.45,North,-999,-999.0,-999.0,92,0.00,,,0.00,meteohub,2013-10-16 01:02:00,
2013-10-15 20:07:00,65.3,63.0,29.48,North,-999,-999.0,-999.0,92,0.00,,,0.00,meteohub,2013-10-16 01:07:00,
2013-10-15 20:12:00,65.3,63.0,29.48,North,-999,-999.0,-999.0,92,0.00,,,0.00,meteohub,2013-10-16 01:12:00,
2013-10-15 20:17:00,65.3,63.0,29.48,North,-999,-999.0,-999.0,92,0.00,,,0.00,meteohub,2013-10-16 01:17:00,
2013-10-15 20:22:00,65.3,63.0,29.48,North,-999,-999.0,-999.0,92,0.00,,,0.00,meteohub,2013-10-16 01:22:00,
2013-10-15 20:27:00,65.3,63.0,29.48,North,-999,-999.0,-999.0,92,0.00,,,0.00,meteohub,2013-10-16 01:27:00,
2013-10-15 20:32:00,65.3,63.0,29.48,North,-999,-999.0,-999.0,92,0.00,,,0.00,meteohub,2013-10-16 01:32:00,
2013-10-15 20:37:00,65.3,63.0,29.48,North,-999,-999.0,-999.0,92,0.00,,,0.00,meteohub,2013-10-16 01:37:00,
2013-10-15 20:42:00,65.3,63.0,29.48,North,-999,-999.0,-999.0,92,0.00,,,0.00,meteohub,2013-10-16 01:42:00,
2013-10-15 20:47:00,65.3,63.0,29.48,North,-999,-999.0,-999.0,92,0.00,,,0.00,meteohub,2013-10-16 01:47:00,
2013-10-15 20:52:00,65.3,63.0,29.48,North,-999,-999.0,-999.0,92,0.00,,,0.00,meteohub,2013-10-16 01:52:00,
2013-10-15 20:57:00,65.3,63.0,29.48,North,-999,-999.0,-999.0,92,0.00,,,0.00,meteohub,2013-10-16 01:57:00,
2013-10-15 21:03:00,65.3,63.0,29.48,North,-999,-999.0,-999.0,92,0.00,,,0.00,meteohub,2013-10-16 02:03:00,
2013-10-15 21:08:00,65.3,63.0,29.48,North,-999,-999.0,-999.0,92,0.00,,,0.00,meteohub,2013-10-16 02:08:00,
2013-10-15 21:13:00,65.3,63.0,29.48,North,-999,-999.0,-999.0,92,0.00,,,0.00,meteohub,2013-10-16 02:13:00,
2013-10-15 21:18:00,65.3,63.0,29.48,North,-999,-999.0,-999.0,92,0.00,,,0.00,meteohub,2013-10-16 02:18:00,
2013-10-15 21:23:00,65.3,63.0,29.48,WSW,248,5.0,-999.0,92,0.00,,,0.00,meteohub,2013-10-16 02:23:00,
2013-10-15 21:28:00,65.3,63.0,29.48,WSW,248,5.0,-999.0,92,0.00,,,0.00,meteohub,2013-10-16 02:28:00,
2013-10-15 21:33:00,65.3,63.0,29.48,WSW,248,5.0,5.0,92,0.00,,,0.00,meteohub,2013-10-16 02:33:00,
2013-10-15 21:38:00,65.3,63.0,29.48,WSW,248,5.0,5.0,92,0.00,,,0.00,meteohub,2013-10-16 02:38:00,
2013-10-15 21:43:00,65.3,63.0,29.48,North,-999,-999.0,5.0,92,0.00,,,0.00,meteohub,2013-10-16 02:43:00,
2013-10-15 21:48:00,65.3,63.0,29.51,North,-999,-999.0,5.0,92,0.00,,,0.00,meteohub,2013-10-16 02:48:00,
2013-10-15 21:54:00,65.3,63.0,29.51,North,-999,-999.0,5.0,92,0.00,,,0.00,meteohub,2013-10-16 02:54:00,
2013-10-15 21:59:00,65.1,62.8,29.51,North,-999,-999.0,-999.0,92,0.00,,,0.00,meteohub,2013-10-16 02:59:00,
2013-10-15 22:04:00,65.1,63.0,29.51,North,-999,-999.0,-999.0,93,0.00,,,0.00,meteohub,2013-10-16 03:04:00,
2013-10-15 22:09:00,64.9,62.6,29.51,North,-999,-999.0,-999.0,92,0.00,,,0.00,meteohub,2013-10-16 03:09:00,
2013-10-15 22:14:00,64.6,61.5,29.51,North,-999,-999.0,-999.0,90,0.00,,,0.00,meteohub,2013-10-16 03:14:00,
2013-10-15 22:19:00,64.2,61.0,29.51,North,-999,-999.0,-999.0,89,0.00,,,0.00,meteohub,2013-10-16 03:19:00,
2013-10-15 22:24:00,63.9,60.3,29.51,North,-999,-999.0,-999.0,88,0.00,,,0.00,meteohub,2013-10-16 03:24:00,
2013-10-15 22:29:00,63.7,59.7,29.51,North,-999,-999.0,-999.0,87,0.00,,,0.00,meteohub,2013-10-16 03:29:00,
2013-10-15 22:34:00,63.5,59.2,29.51,North,-999,-999.0,-999.0,86,0.00,,,0.00,meteohub,2013-10-16 03:34:00,
2013-10-15 22:39:00,63.1,58.8,29.51,North,-999,-999.0,-999.0,86,0.00,,,0.00,meteohub,2013-10-16 03:39:00,
2013-10-15 22:45:00,63.1,58.6,29.51,North,-999,-999.0,-999.0,85,0.00,,,0.00,meteohub,2013-10-16 03:45:00,
2013-10-15 22:50:00,62.8,57.6,29.48,North,-999,-999.0,-999.0,83,0.00,,,0.00,meteohub,2013-10-16 03:50:00,
2013-10-15 22:55:00,62.6,56.3,29.48,North,-999,-999.0,-999.0,80,0.00,,,0.00,meteohub,2013-10-16 03:55:00,
2013-10-15 23:00:00,62.2,55.9,29.48,North,-999,-999.0,-999.0,80,0.00,,,0.00,meteohub,2013-10-16 04:00:00,
2013-10-15 23:01:00,62.2,55.6,29.48,North,-999,-999.0,-999.0,79,0.00,,,0.00,meteohub,2013-10-16 04:01:00,
2013-10-15 23:02:00,62.2,55.6,29.48,North,-999,-999.0,-999.0,79,0.00,,,0.00,meteohub,2013-10-16 04:02:00,
2013-10-15 23:07:00,61.9,54.3,29.48,North,-999,-999.0,-999.0,76,0.00,,,0.00,meteohub,2013-10-16 04:07:00,
2013-10-15 23:11:00,61.7,53.4,29.48,North,-999,-999.0,-999.0,74,0.00,,,0.00,meteohub,2013-10-16 04:11:00,
2013-10-15 23:16:00,61.3,53.1,29.48,North,-999,-999.0,-999.0,74,0.00,,,0.00,meteohub,2013-10-16 04:16:00,
2013-10-15 23:21:00,61.0,52.3,29.51,North,-999,-999.0,-999.0,73,0.00,,,0.00,meteohub,2013-10-16 04:21:00,
2013-10-15 23:26:00,61.0,53.1,29.51,North,-999,-999.0,-999.0,75,0.00,,,0.00,meteohub,2013-10-16 04:26:00,
2013-10-15 23:31:00,60.6,49.6,29.51,North,-999,-999.0,-999.0,67,0.00,,,0.00,meteohub,2013-10-16 04:31:00,
2013-10-15 23:37:00,60.6,48.7,29.48,North,-999,-999.0,-999.0,65,0.00,,,0.00,meteohub,2013-10-16 04:37:00,
2013-10-15 23:42:00,60.4,47.8,29.48,North,-999,-999.0,-999.0,63,0.00,,,0.00,meteohub,2013-10-16 04:42:00,
2013-10-15 23:47:00,60.4,48.2,29.48,North,-999,-999.0,-999.0,64,0.00,,,0.00,meteohub,2013-10-16 04:47:00,
2013-10-15 23:52:00,60.3,47.7,29.48,North,-999,-999.0,-999.0,63,0.00,,,0.00,meteohub,2013-10-16 04:52:00,
2013-10-15 23:57:00,60.1,47.8,29.48,North,-999,-999.0,-999.0,64,0.00,,,0.00,meteohub,2013-10-16 04:57:00,